createdAt,value
2022-10-26T00:03:15.772Z,9.1
2022-10-26T00:08:15.576Z,9.0
2022-10-26T00:13:15.497Z,8.9
2022-10-26T00:18:15.679Z,8.8
2022-10-26T00:23:15.573Z,8.8
2022-10-26T00:28:15.530Z,8.7
2022-10-26T00:33:15.733Z,8.6
2022-10-26T00:38:15.493Z,8.6
2022-10-26T00:43:15.491Z,8.5
2022-10-26T00:48:15.655Z,8.5
2022-10-26T00:53:16.323Z,8.4
2022-10-26T00:58:15.444Z,8.4
2022-10-26T01:03:15.570Z,8.3
2022-10-26T01:08:15.590Z,8.3
2022-10-26T01:13:15.459Z,8.3
2022-10-26T01:18:15.502Z,8.2
2022-10-26T01:23:15.641Z,8.2
2022-10-26T01:28:15.430Z,8.1
2022-10-26T01:33:15.433Z,8.1
2022-10-26T01:38:15.678Z,8.1
2022-10-26T01:43:15.634Z,8.0
2022-10-26T01:48:15.391Z,8.0
2022-10-26T01:53:15.596Z,8.0
2022-10-26T01:58:15.433Z,8.0
2022-10-26T02:03:15.391Z,7.9
2022-10-26T02:08:15.623Z,7.9
2022-10-26T02:13:15.389Z,7.9
2022-10-26T02:18:15.354Z,7.8
2022-10-26T02:23:15.505Z,7.8
2022-10-26T02:28:15.482Z,7.7
2022-10-26T02:33:15.250Z,7.7
2022-10-26T02:38:15.486Z,7.6
2022-10-26T02:43:15.976Z,7.6
2022-10-26T02:48:16.087Z,7.5
2022-10-26T02:53:16.072Z,7.4
2022-10-26T02:58:15.336Z,7.4
2022-10-26T03:03:15.358Z,7.3
2022-10-26T03:08:15.559Z,7.3
2022-10-26T03:13:15.648Z,7.3
2022-10-26T03:18:16.421Z,7.3
2022-10-26T03:23:16.073Z,7.3
2022-10-26T03:28:15.243Z,7.3
2022-10-26T03:33:15.375Z,7.2
2022-10-26T03:38:16.163Z,7.2
2022-10-26T03:43:15.307Z,7.2
2022-10-26T03:48:16.608Z,7.2
2022-10-26T03:53:15.367Z,7.2
2022-10-26T03:58:15.321Z,7.1
2022-10-26T04:03:15.154Z,7.1
2022-10-26T04:08:15.205Z,7.1
2022-10-26T04:13:15.122Z,7.0
2022-10-26T04:18:15.062Z,6.9
2022-10-26T04:23:15.302Z,6.8
2022-10-26T04:28:15.063Z,6.8
2022-10-26T04:33:15.075Z,6.8
2022-10-26T04:38:15.098Z,6.7
2022-10-26T04:43:15.090Z,6.6
2022-10-26T04:48:15.293Z,6.6
2022-10-26T04:53:15.922Z,6.5
2022-10-26T04:58:15.840Z,6.5
2022-10-26T05:03:15.804Z,6.5
2022-10-26T05:08:15.052Z,6.4
2022-10-26T05:13:15.082Z,6.4
2022-10-26T05:18:15.185Z,6.3
2022-10-26T05:23:15.000Z,6.3
2022-10-26T05:28:14.950Z,6.2
2022-10-26T05:33:15.195Z,6.2
2022-10-26T05:38:15.138Z,6.1
2022-10-26T05:43:15.032Z,6.1
2022-10-26T05:48:15.125Z,6.1
2022-10-26T05:53:14.906Z,6.0
2022-10-26T05:58:14.933Z,6.0
2022-10-26T06:03:15.117Z,6.0
2022-10-26T06:08:14.909Z,6.0
2022-10-26T06:13:14.846Z,6.0
2022-10-26T06:18:15.093Z,5.9
2022-10-26T06:23:15.281Z,6.0
2022-10-26T06:28:14.851Z,6.0
2022-10-26T06:33:24.979Z,6.1
2022-10-26T06:38:15.040Z,6.2
2022-10-26T06:43:15.010Z,6.3
2022-10-26T06:48:14.817Z,6.4
2022-10-26T06:53:15.001Z,6.6
2022-10-26T06:58:14.894Z,6.7
2022-10-26T07:03:15.020Z,6.9
2022-10-26T07:08:14.905Z,7.1
2022-10-26T07:13:15.041Z,7.3
2022-10-26T07:18:14.996Z,7.5
2022-10-26T07:23:14.806Z,7.8
2022-10-26T07:28:14.823Z,8.0
2022-10-26T07:33:14.913Z,8.3
2022-10-26T07:38:15.072Z,8.6
2022-10-26T07:43:14.700Z,8.8
2022-10-26T07:48:14.820Z,9.1
2022-10-26T07:53:15.055Z,9.4
2022-10-26T07:58:14.685Z,9.6
2022-10-26T08:03:14.922Z,9.8
2022-10-26T08:08:15.015Z,10.0
2022-10-26T08:13:14.875Z,10.3
2022-10-26T08:18:14.693Z,10.5
2022-10-26T08:23:14.945Z,10.6
2022-10-26T08:28:14.771Z,10.8
2022-10-26T08:33:14.780Z,11.0
2022-10-26T08:38:14.674Z,11.1
2022-10-26T08:43:14.635Z,11.3
2022-10-26T08:48:14.647Z,11.4
2022-10-26T08:53:14.851Z,11.6
2022-10-26T08:58:14.638Z,11.7
2022-10-26T09:03:14.615Z,11.9
2022-10-26T09:08:14.791Z,12.0
2022-10-26T09:13:14.594Z,12.1
2022-10-26T09:18:14.586Z,12.3
2022-10-26T09:23:14.775Z,12.4
2022-10-26T09:28:14.626Z,12.6
2022-10-26T09:33:14.618Z,12.8
2022-10-26T09:38:14.556Z,13.0
2022-10-26T09:43:14.592Z,13.1
2022-10-26T09:48:14.650Z,13.3
2022-10-26T09:53:14.507Z,13.5
2022-10-26T09:58:14.588Z,13.7
2022-10-26T10:03:14.850Z,13.8
2022-10-26T10:08:14.575Z,14.1
2022-10-26T10:13:14.570Z,14.3
2022-10-26T10:18:14.693Z,14.4
2022-10-26T10:23:14.561Z,14.6
2022-10-26T10:28:14.556Z,14.7
2022-10-26T10:33:14.463Z,14.9
2022-10-26T10:38:14.456Z,15.1
2022-10-26T10:43:14.471Z,15.2
2022-10-26T10:48:14.577Z,15.4
2022-10-26T10:53:14.440Z,15.5
2022-10-26T10:58:14.631Z,15.6
2022-10-26T11:03:15.599Z,15.7
2022-10-26T11:08:14.764Z,15.7
2022-10-26T11:13:14.470Z,15.8
2022-10-26T11:18:14.576Z,15.9
2022-10-26T11:23:14.494Z,16.0
2022-10-26T11:28:14.485Z,16.0
2022-10-26T11:33:14.903Z,16.1
2022-10-26T11:38:18.062Z,16.3
2022-10-26T11:43:14.715Z,16.4
2022-10-26T11:48:14.395Z,16.6
2022-10-26T11:53:14.479Z,16.6
2022-10-26T11:58:14.434Z,16.5
2022-10-26T12:03:14.581Z,16.4
2022-10-26T12:08:15.741Z,16.4
2022-10-26T12:13:14.272Z,16.4
2022-10-26T12:18:14.521Z,16.4
2022-10-26T12:23:23.156Z,16.3
2022-10-26T12:28:14.348Z,16.2
2022-10-26T12:33:14.449Z,16.1
2022-10-26T12:38:14.600Z,16.0
2022-10-26T12:43:14.529Z,16.1
2022-10-26T12:48:27.647Z,16.2
2022-10-26T12:53:14.509Z,16.3
2022-10-26T12:58:14.283Z,16.4
2022-10-26T13:03:14.321Z,16.5
2022-10-26T13:08:14.445Z,16.5
2022-10-26T13:13:14.258Z,16.5
2022-10-26T13:18:15.369Z,16.5
2022-10-26T13:23:14.501Z,16.5
2022-10-26T13:28:16.232Z,16.5
2022-10-26T13:33:14.328Z,16.5
2022-10-26T13:38:14.769Z,16.5
2022-10-26T13:43:14.257Z,16.5
2022-10-26T13:48:14.178Z,16.4
2022-10-26T13:53:14.487Z,16.3
2022-10-26T13:58:14.179Z,16.3
2022-10-26T14:03:14.165Z,16.1
2022-10-26T14:08:14.349Z,16.0
2022-10-26T14:13:14.175Z,16.0
2022-10-26T14:18:14.102Z,15.9
2022-10-26T14:23:14.291Z,15.9
2022-10-26T14:28:14.116Z,15.8
2022-10-26T14:38:14.413Z,15.6
2022-10-26T14:43:14.282Z,15.5
2022-10-26T14:48:14.147Z,15.4
2022-10-26T14:53:15.268Z,15.3
2022-10-26T14:58:14.123Z,15.2
2022-10-26T15:03:14.237Z,15.1
2022-10-26T15:08:23.747Z,15.0
2022-10-26T15:13:14.029Z,14.8
2022-10-26T15:18:14.051Z,14.6
2022-10-26T15:23:14.322Z,14.4
2022-10-26T15:28:14.378Z,14.1
2022-10-26T15:33:16.686Z,13.9
2022-10-26T15:38:14.900Z,13.6
2022-10-26T15:43:14.053Z,13.3
2022-10-26T15:48:14.056Z,13.0
2022-10-26T15:53:14.255Z,12.8
2022-10-26T15:58:14.085Z,12.6
2022-10-26T16:03:15.473Z,12.2
2022-10-26T16:08:17.800Z,11.9
2022-10-26T16:13:14.205Z,11.7
2022-10-26T16:18:14.288Z,11.5
2022-10-26T16:23:14.025Z,11.3
2022-10-26T16:28:13.957Z,11.1
2022-10-26T16:33:14.139Z,11.1
2022-10-26T16:38:14.000Z,11.0
2022-10-26T16:43:14.068Z,10.9
2022-10-26T16:48:13.855Z,10.8
2022-10-26T16:53:13.906Z,10.6
2022-10-26T16:58:13.864Z,10.4
2022-10-26T17:03:14.067Z,10.2
2022-10-26T17:08:13.852Z,10.2
2022-10-26T17:13:13.875Z,10.1
2022-10-26T17:18:14.119Z,9.9
2022-10-26T17:23:13.966Z,9.8
2022-10-26T17:28:13.781Z,9.7
2022-10-26T17:33:13.933Z,9.7
2022-10-26T17:38:13.875Z,9.7
2022-10-26T17:43:14.194Z,9.6
2022-10-26T17:48:14.038Z,9.5
2022-10-26T17:53:13.935Z,9.4
2022-10-26T17:58:13.871Z,9.2
2022-10-26T18:03:14.227Z,9.1
2022-10-26T18:08:13.729Z,9.1
2022-10-26T18:13:14.140Z,9.0
2022-10-26T18:18:14.049Z,8.9
2022-10-26T18:23:13.841Z,8.9
2022-10-26T18:28:13.770Z,8.8
2022-10-26T18:33:13.903Z,8.6
2022-10-26T18:38:15.247Z,8.6
2022-10-26T18:43:14.993Z,8.5
2022-10-26T18:48:14.717Z,8.5
2022-10-26T18:53:14.162Z,8.4
2022-10-26T18:58:13.781Z,8.4
2022-10-26T19:03:13.689Z,8.3
2022-10-26T19:08:14.246Z,8.3
2022-10-26T19:13:13.708Z,8.1
2022-10-26T19:18:13.804Z,8.0
2022-10-26T19:23:13.633Z,7.9
2022-10-26T19:28:13.795Z,7.9
2022-10-26T19:33:13.759Z,7.9
2022-10-26T19:38:13.807Z,7.8
2022-10-26T19:43:13.621Z,7.8
2022-10-26T19:48:13.950Z,7.8
2022-10-26T19:53:13.749Z,7.8
2022-10-26T19:58:13.962Z,7.7
2022-10-26T20:03:14.189Z,7.7
2022-10-26T20:08:15.258Z,7.7
2022-10-26T20:13:13.762Z,7.7
2022-10-26T20:18:13.850Z,7.7
2022-10-26T20:23:13.614Z,7.6
2022-10-26T20:28:13.734Z,7.6
2022-10-26T20:33:13.570Z,7.6
2022-10-26T20:38:13.832Z,7.5
2022-10-26T20:43:13.683Z,7.5
2022-10-26T20:48:13.561Z,7.4
2022-10-26T20:53:13.599Z,7.4
2022-10-26T20:58:13.522Z,7.3
2022-10-26T21:03:13.484Z,7.2
2022-10-26T21:08:13.608Z,7.2
2022-10-26T21:13:13.515Z,7.1
2022-10-26T21:18:13.624Z,7.1
2022-10-26T21:23:13.454Z,7.1
2022-10-26T21:28:13.502Z,7.1
2022-10-26T21:33:13.501Z,7.2
2022-10-26T21:38:13.411Z,7.2
2022-10-26T21:43:13.533Z,7.2
2022-10-26T21:48:14.557Z,7.2
2022-10-26T21:53:13.478Z,7.2
2022-10-26T21:58:13.428Z,7.2
2022-10-26T22:03:13.425Z,7.2
2022-10-26T22:08:13.379Z,7.2
2022-10-26T22:13:13.401Z,7.3
2022-10-26T22:18:13.346Z,7.3
2022-10-26T22:23:13.424Z,7.3
2022-10-26T22:28:13.718Z,7.4
2022-10-26T22:33:13.386Z,7.4
2022-10-26T22:38:13.353Z,7.4
2022-10-26T22:43:13.447Z,7.4
2022-10-26T22:48:13.597Z,7.5
2022-10-26T22:53:13.312Z,7.4
2022-10-26T22:58:13.378Z,7.4
2022-10-26T23:03:13.478Z,7.4
2022-10-26T23:08:13.414Z,7.4
2022-10-26T23:13:13.442Z,7.4
2022-10-26T23:18:13.496Z,7.5
2022-10-26T23:23:13.324Z,7.5
2022-10-26T23:28:14.016Z,7.5
2022-10-26T23:33:13.261Z,7.4
2022-10-26T23:38:14.496Z,7.5
2022-10-26T23:43:13.294Z,7.4
2022-10-26T23:48:13.373Z,7.5
2022-10-26T23:53:13.223Z,7.5
2022-10-26T23:58:13.304Z,7.5
